Byrdstown, TN (38549)

12:04 PM CST on December 03, 2016 (GMT -0600)
Highlands @ BSF | | Change Station

Elev 1637 ft 36.49 °N, 84.86 °W | Updated 34 seconds ago

Mostly Cloudy
Mostly Cloudy
40.0 °F
Feels Like 40 °F
N
1.0
Wind Variable Wind from East

Today
High -- | Low -- °F
--% Chance of Precip.
Yesterday
High -- | Low -- °F
Precip. -- in
Pressure 30.30 in
Visibility 10.0 miles
Clouds Mostly Cloudy 10000 ft
Windchill 40 °F
Dew Point 28 °F
Humidity 63%
Rainfall 0.00 in
Snow Depth Not available.
6:36 AM 4:24 PM
Waxing Crescent, 16% visible
METAR KCSV 031753Z AUTO VRB03KT 10SM BKN100 04/M02 A3028 RMK AO2 SLP261 T00441017 10044 21006 56010
Pressure 30.30 in
Visibility 10.0 miles
Clouds Mostly Cloudy 10000 ft
Windchill 40 °F
Dew Point 28 °F
Humidity 63%
Rainfall 0.00 in
Snow Depth Not available.
6:36 AM 4:24 PM
Waxing Crescent, 16% visible
METAR KCSV 031753Z AUTO VRB03KT 10SM BKN100 04/M02 A3028 RMK AO2 SLP261 T00441017 10044 21006 56010

10-Day Weather Forecast

Almanac

Astronomy

Dec. 03, 2016 Rise Set
Actual Time
Civil Twilight
Nautical Twilight
Astronomical Twilight
Moon
Length of Visible Light
Length of Day
Tomorrow will be .
, % of the Moon is Illuminated

Today's Extremes

State Highs State Lows

Community

WunderPhotos

Upload Photos

1,955,455 photos uploaded!

WunderBlog® & News

Nearby

Air Quality

  Air Quality AQ Index Pollutant
Not available.

Snow Depth

Station Depth Elevation

Earthquake Activity

City Distance Mag. Time & Date
Minimum magnitude displayed is 2.5.

Coastal Water Temperatures

Place Temperature

Stations

Nearby Weather Stations

Station Location Temp. Windchill Dew Point Humidity Wind Precip. Elev Updated Type
                   

Watches & Warnings

There are currently no watches in effect.